Viewpointe Walnut Grove Tower

*Note: All times are displayed in the local standard time of the station location.
**Rain - Equipment is designed to accurately record liquid precipitation; under conditions when precipitation is not in liquid form, the data displayed may not properly reflect rainfall values.

Date Max Temp
(°C)
Min Temp
(°C)
Avg Temp
(°C)
Rain (mm) Avg RH (%)
Fri, Aug 23, 2019 25.3 10.4 17.5 - 72.5
Thu, Aug 22, 2019 25.5 15.0 21.0 - 70.1
Wed, Aug 21, 2019 29.0 19.4 24.0 - 83.1
Tue, Aug 20, 2019 28.3 18.7 23.6 - 88.7
Mon, Aug 19, 2019 29.0 18.1 22.7 - 85.7
Sun, Aug 18, 2019 26.3 19.4 23.4 - 85.5
Sat, Aug 17, 2019 29.7 20.3 24.4 - 82.5
DateTime Avg Temp (°C) Rain (mm) RH (%)
Sat, Aug 24, 2019 18:00 22.4 - 48.1
Sat, Aug 24, 2019 17:00 22.3 - 48.8
Sat, Aug 24, 2019 16:00 21.8 - 50.8
Sat, Aug 24, 2019 15:00 21.6 - 51.2
Sat, Aug 24, 2019 14:00 21.2 - 52.1
Sat, Aug 24, 2019 13:00 20.5 - 53.7
Sat, Aug 24, 2019 12:00 19.5 - 56.5
Sat, Aug 24, 2019 11:00 18.9 - 62.6
Sat, Aug 24, 2019 10:00 17.7 - 69.9
Sat, Aug 24, 2019 09:00 16.0 - 77.4
Sat, Aug 24, 2019 08:00 11.6 - 92.6
Sat, Aug 24, 2019 07:00 10.8 - 95.2
Sat, Aug 24, 2019 06:00 11.1 - 95.7
Sat, Aug 24, 2019 05:00 11.5 - 95.0
Sat, Aug 24, 2019 04:00 11.6 - 95.3
Sat, Aug 24, 2019 03:00 11.3 - 96.0
Sat, Aug 24, 2019 02:00 12.2 - 90.8
Sat, Aug 24, 2019 01:00 13.1 - 85.8
Sat, Aug 24, 2019 00:00 13.9 - 80.6
Fri, Aug 23, 2019 23:00 14.4 - 79.9
Fri, Aug 23, 2019 22:00 15.3 - 78.3
Fri, Aug 23, 2019 21:00 17.2 - 71.8
Fri, Aug 23, 2019 20:00 20.5 - 60.9
Fri, Aug 23, 2019 19:00 23.0 - 53.3
Fri, Aug 23, 2019 18:00 24.3 - 45.3
Fri, Aug 23, 2019 17:00 24.8 - 43.8
Fri, Aug 23, 2019 16:00 24.7 - 44.0
Fri, Aug 23, 2019 15:00 23.7 - 46.1
Fri, Aug 23, 2019 14:00 23.1 - 44.8
Fri, Aug 23, 2019 13:00 21.5 - 50.2
Fri, Aug 23, 2019 12:00 20.7 - 58.8
Fri, Aug 23, 2019 11:00 19.4 - 68.1
Fri, Aug 23, 2019 10:00 18.1 - 75.5
Fri, Aug 23, 2019 09:00 16.3 - 82.8
Fri, Aug 23, 2019 08:00 11.8 - 98.6
Fri, Aug 23, 2019 07:00 10.7 - 98.6
Fri, Aug 23, 2019 06:00 10.7 - 98.2
Fri, Aug 23, 2019 05:00 11.2 - 97.8
Fri, Aug 23, 2019 04:00 11.7 - 96.9
Fri, Aug 23, 2019 03:00 12.6 - 95.5
Fri, Aug 23, 2019 02:00 14.0 - 91.5
Fri, Aug 23, 2019 01:00 15.9 - 79.4
Fri, Aug 23, 2019 00:00 15.5 - 85.4
Thu, Aug 22, 2019 23:00 17.2 - 74.7
Thu, Aug 22, 2019 22:00 18.6 - 71.2
Thu, Aug 22, 2019 21:00 19.7 - 66.8
Thu, Aug 22, 2019 20:00 22.0 - 60.3
Thu, Aug 22, 2019 19:00 23.4 - 54.7


asterix Register now to access more data! asterix